Latest Weather Observations for Tasman Island

IDT60901

Issued at 4:11 pm EST Friday 21 September 2018 (issued every 10 minutes, with the page automatically refreshed every 10 minutes)

About weather observations | Map of Hobart area stations | Latest observations for Hobart area | Other Formats
Station Details ID: 094155 Name: TASMAN ISLAND Lat: -43.24 Lon: 148.00 Height: 240.0 m
Data from the previous 72 hours. | See also: Recent months at Tasman Island
Date/Time
EST
Temp
°C
App
Temp
°C
Dew
Point
°C
Rel
Hum
%
Delta-T
°C
Wind Press
QNH
hPa
Press
MSL
hPa
Rain since
9am
mm
Dir  Spd
km/h
Gust
km/h
Spd
kts
Gust
kts
21/04:00pm 13.7 12.1 6.3 61 3.6 N 4 6 2 3 1017.3 1017.6 0.0
21/03:30pm 13.4 11.8 6.5 63 3.4 E 4 7 2 4 1017.2 1017.5 0.0
21/03:00pm 14.1 12.9 6.5 60 3.7 S 2 6 1 3 1017.2 1017.5 0.0
21/02:30pm 14.8 12.6 6.4 57 4.1 W 7 15 4 8 1017.1 1017.4 0.0
21/02:00pm 15.4 12.9 6.4 55 4.4 W 9 15 5 8 1017.3 1017.6 0.0
21/01:30pm 15.1 11.7 5.9 54 4.5 W 13 17 7 9 1017.5 1017.8 0.0
21/01:00pm 15.9 11.8 6.1 52 4.8 WNW 17 30 9 16 1017.6 1017.9 0.0
21/12:30pm 15.2 11.1 6.0 54 4.5 WNW 17 24 9 13 1017.9 1018.2 0.0
21/12:00pm 13.6 8.4 5.5 58 3.8 WNW 22 30 12 16 1018.1 1018.4 0.0
21/11:30am 13.5 9.2 5.4 58 3.8 NW 17 28 9 15 1018.2 1018.5 0.0
21/11:00am 13.4 9.2 5.6 59 3.7 WNW 17 28 9 15 1018.3 1018.6 0.0
21/10:30am 14.9 12.2 7.2 60 3.8 WNW 11 20 6 11 1018.4 1018.7 0.0
21/10:00am 13.2 8.6 5.6 60 3.6 NW 19 28 10 15 1018.5 1018.8 0.0
21/09:30am 13.1 9.3 6.0 62 3.4 NW 15 20 8 11 1018.5 1018.8 0.0
21/09:00am 13.6 10.2 5.7 59 3.8 NW 13 19 7 10 1018.3 1018.6 0.0
21/08:30am 12.4 9.0 6.0 65 3.1 NW 13 22 7 12 1018.3 1018.6 0.0
21/08:00am 12.0 8.2 5.9 66 2.9 NW 15 20 8 11 1018.3 1018.6 0.0
21/07:30am 11.6 8.2 6.1 69 2.6 NW 13 20 7 11 1018.0 1018.3 0.0
21/07:00am 10.8 7.0 5.6 70 2.4 NW 15 20 8 11 1017.9 1018.2 0.0
21/06:30am 10.2 6.3 5.2 71 2.3 NW 15 20 8 11 1017.6 1017.9 0.0
21/06:00am 9.6 5.6 5.0 73 2.1 NNW 15 22 8 12 1017.2 1017.5 0.0
21/05:30am 9.3 5.0 5.1 75 1.9 NNW 17 26 9 14 1017.1 1017.4 0.0
21/05:00am 9.8 5.9 5.2 73 2.1 NW 15 24 8 13 1016.9 1017.2 0.0
21/04:30am 10.2 6.1 4.6 68 2.5 NW 15 24 8 13 1016.8 1017.1 0.0
21/04:00am 10.0 5.6 4.6 69 2.4 NW 17 24 9 13 1016.6 1016.9 0.0
21/03:30am 10.2 5.7 4.4 67 2.6 WNW 17 26 9 14 1016.4 1016.7 0.0
21/03:00am 10.0 5.5 4.4 68 2.5 NW 17 28 9 15 1016.3 1016.6 0.0
21/02:30am 10.1 6.1 4.7 69 2.5 WNW 15 28 8 15 1016.5 1016.8 0.0
21/02:00am 10.2 6.2 5.0 70 2.4 WNW 15 24 8 13 1016.6 1016.9 0.0
21/01:30am 10.2 5.5 5.0 70 2.4 WNW 19 35 10 19 1016.8 1017.1 0.0
21/01:00am 10.0 7.3 5.4 73 2.1 WNW 9 32 5 17 1016.7 1017.0 0.0
21/12:30am 9.9 7.2 5.5 74 2.0 W 9 24 5 13 1016.6 1016.9 0.0
21/12:00am 10.1 6.6 5.5 73 2.1 WNW 13 24 7 13 1016.4 1016.7 0.0
 
Date/Time
EST
Temp
°C
App
Temp
°C
Dew
Point
°C
Rel
Hum
%
Delta-T
°C
Wind Press
QNH
hPa
Press
MSL
hPa
Rain since
9am
mm
Dir  Spd
km/h
Gust
km/h
Spd
kts
Gust
kts
20/11:30pm 10.1 6.2 5.5 73 2.1 WNW 15 26 8 14 1016.4 1016.7 0.0
20/11:00pm 9.9 6.4 5.5 74 2.0 WNW 13 19 7 10 1016.5 1016.8 0.0
20/10:30pm 10.2 8.1 5.8 74 2.1 WNW 6 22 3 12 1016.4 1016.7 0.0
20/10:00pm 10.5 8.3 5.5 71 2.3 E 6 15 3 8 1016.4 1016.7 0.0
20/09:30pm 10.7 7.2 5.5 70 2.4 WNW 13 24 7 13 1016.3 1016.6 0.0
20/09:00pm 10.6 7.5 5.4 70 2.4 WNW 11 22 6 12 1015.8 1016.0 0.0
20/08:30pm 10.5 6.2 5.1 69 2.5 WNW 17 28 9 15 1015.5 1015.7 0.0
20/08:00pm 10.4 6.1 5.2 70 2.4 WNW 17 24 9 13 1015.5 1015.7 0.0
20/07:30pm 10.6 6.0 5.4 70 2.4 W 19 30 10 16 1015.2 1015.4 0.0
20/07:00pm 10.7 8.0 5.7 71 2.3 WSW 9 30 5 16 1015.0 1015.2 0.0
20/06:30pm 10.7 6.9 5.9 72 2.3 W 15 30 8 16 1014.6 1014.8 0.0
20/06:00pm 11.1 8.3 5.2 67 2.7 WSW 9 32 5 17 1014.2 1014.5 0.0
20/05:30pm 11.4 8.7 5.5 67 2.8 WSW 9 30 5 16 1014.0 1014.3 0.0
20/05:00pm 11.9 9.1 5.1 63 3.2 WSW 9 26 5 14 1013.6 1013.9 0.0
20/04:30pm 11.8 8.9 4.8 62 3.2 E 9 28 5 15 1013.2 1013.5 0.0
20/04:00pm 11.7 8.8 4.7 62 3.2 W 9 28 5 15 1012.9 1013.2 0.0
20/03:30pm 11.7 8.5 4.9 63 3.1 W 11 30 6 16 1012.9 1013.2 0.0
20/03:00pm 12.2 9.3 4.9 61 3.4 W 9 28 5 15 1012.9 1013.2 0.0
20/02:30pm 12.0 8.7 4.5 60 3.4 W 11 32 6 17 1012.7 1013.0 0.0
20/02:00pm 12.0 8.6 4.0 58 3.6 W 11 32 6 17 1012.9 1013.2 0.0
20/01:30pm 11.4 8.5 4.4 62 3.2 W 9 28 5 15 1012.8 1013.1 0.0
20/01:00pm 12.1 9.1 4.1 58 3.7 W 9 32 5 17 1012.7 1013.0 0.0
20/12:30pm 11.8 7.6 3.6 57 3.7 NW 15 32 8 17 1012.8 1013.1 0.0
20/12:00pm 11.8 8.7 3.6 57 3.7 W 9 20 5 11 1012.9 1013.2 0.0
20/11:30am 11.2 7.6 3.0 57 3.6 WNW 11 28 6 15 1013.1 1013.4 0.0
20/11:00am 10.1 6.9 2.9 61 3.1 W 9 33 5 18 1012.8 1013.1 0.0
20/10:30am 10.0 6.4 3.1 62 3.0 W 11 30 6 16 1012.8 1013.1 0.0
20/10:00am 10.1 5.8 3.4 63 3.0 WNW 15 30 8 16 1012.8 1013.1 0.0
20/09:30am 9.1 3.3 2.4 63 2.9 WNW 22 33 12 18 1012.8 1013.1 0.0
20/09:00am 8.3 3.1 2.3 66 2.5 WNW 19 37 10 20 1012.9 1013.2 1.2
20/08:30am 7.9 4.1 2.0 66 2.5 WNW 11 28 6 15 1012.9 1013.2 1.2
20/08:00am 6.9 2.6 1.0 66 2.4 WNW 13 26 7 14 1012.7 1013.0 1.2
20/07:30am 6.8 2.2 1.3 68 2.2 WNW 15 30 8 16 1012.1 1012.3 1.2
20/07:00am 6.9 0.9 1.0 66 2.4 WNW 22 39 12 21 1011.9 1012.1 1.2
20/06:30am 6.3 0.3 1.0 69 2.1 WNW 22 37 12 20 1011.5 1011.7 1.2
20/06:00am 6.0 0.0 1.0 70 2.0 WNW 22 37 12 20 1011.6 1011.8 1.2
20/05:30am 5.9 0.7 0.3 67 2.2 WNW 17 28 9 15 1011.5 1011.7 1.2
20/05:00am 6.1 -0.1 -0.2 64 2.5 WNW 22 35 12 19 1011.4 1011.6 1.2
20/04:30am 6.1 0.3 0.2 66 2.3 NW 20 35 11 19 1011.1 1011.3 1.2
20/04:00am 5.9 1.6 0.7 69 2.1 WNW 13 32 7 17 1011.4 1011.6 1.2
20/03:30am 5.7 1.4 0.7 70 2.0 WNW 13 26 7 14 1011.4 1011.6 1.2
20/03:00am 5.6 2.0 0.8 71 1.9 WNW 9 20 5 11 1011.4 1011.6 1.2
20/02:30am 5.6 1.3 1.0 72 1.8 WNW 13 30 7 16 1011.5 1011.7 1.2
20/02:00am 5.8 2.6 1.0 71 1.9 W 7 22 4 12 1011.6 1011.8 1.2
20/01:30am 5.9 1.6 0.9 70 2.0 WNW 13 33 7 18 1011.6 1011.8 1.2
20/01:00am 5.7 2.5 0.7 70 2.0 WNW 7 24 4 13 1011.8 1012.0 1.2
20/12:30am 6.1 2.9 0.6 68 2.2 NW 7 28 4 15 1011.9 1012.1 1.2
20/12:00am 6.5 3.2 0.0 63 2.6 NNE 7 28 4 15 1011.9 1012.1 1.2
 
Date/Time
EST
Temp
°C
App
Temp
°C
Dew
Point
°C
Rel
Hum
%
Delta-T
°C
Wind Press
QNH
hPa
Press
MSL
hPa
Rain since
9am
mm
Dir  Spd
km/h
Gust
km/h
Spd
kts
Gust
kts
19/11:30pm 6.5 2.8 0.2 64 2.5 NW 9 26 5 14 1011.6 1011.8 1.2
19/11:00pm 6.8 2.5 -1.3 56 3.1 SSW 11 46 6 25 1011.6 1011.8 1.2
19/10:30pm 6.9 3.2 -0.3 60 2.8 WNW 9 30 5 16 1011.5 1011.7 1.2
19/10:00pm 6.9 2.7 -0.8 58 3.0 WNW 11 35 6 19 1011.5 1011.7 1.2
19/09:30pm 6.9 2.8 -0.5 59 2.9 W 11 39 6 21 1011.2 1011.4 1.2
19/09:00pm 7.0 2.6 0.2 62 2.7 W 13 41 7 22 1011.0 1011.2 1.2
19/08:30pm 6.9 0.8 0.6 64 2.5 WSW 22 48 12 26 1010.9 1011.1 1.2
19/08:00pm 6.9 1.2 0.8 65 2.5 SW 20 46 11 25 1010.4 1010.6 1.2
19/07:30pm 6.7 -0.7 2.0 72 1.9 SW 30 56 16 30 1010.1 1010.3 1.2
19/07:08pm 7.2 1.4 2.1 70 2.1 SW 22 54 12 29 1009.5 1009.8 1.2
19/07:00pm 7.0 1.0 1.1 66 2.4 SW 22 50 12 27 1009.5 1009.8 1.2
19/06:36pm 6.7 -1.6 2.2 73 1.9 SW 35 54 19 29 1009.3 1009.6 1.2
19/06:30pm 6.8 -1.8 2.7 75 1.7 SW 37 54 20 29 1009.2 1009.5 1.2
19/06:00pm 7.0 -0.2 2.9 75 1.7 SW 30 52 16 28 1008.9 1009.1 1.2
19/05:30pm 7.2 -0.8 0.6 63 2.7 SW 32 65 17 35 1008.3 1008.5 1.2
19/05:00pm 7.3 -1.2 1.0 64 2.6 SW 35 59 19 32 1008.0 1008.2 1.2
19/04:30pm 7.8 -0.8 0.5 60 2.9 SW 35 57 19 31 1007.7 1007.9 1.2
19/04:05pm 7.9 0.6 -0.1 57 3.2 SW 28 54 15 29 1007.5 1007.7 1.2
19/04:00pm 7.9 1.5 1.1 62 2.8 SW 24 54 13 29 1007.4 1007.6 1.2
19/03:34pm 8.0 0.7 -0.2 56 3.3 SW 28 50 15 27 1007.4 1007.6 1.2
19/03:30pm 8.4 1.5 -0.1 55 3.4 SW 26 50 14 27 1007.4 1007.6 1.2
19/03:08pm 8.4 1.2 0.4 57 3.2 SSW 28 57 15 31 1007.2 1007.4 1.2
19/03:00pm 8.5 1.5 -0.8 52 3.7 SW 26 54 14 29 1007.2 1007.4 1.2
19/02:30pm 8.1 0.5 0.8 60 3.0 SW 30 50 16 27 1007.0 1007.2 1.2
19/02:05pm 7.9 0.7 0.9 61 2.9 SSW 28 48 15 26 1006.9 1007.1 1.2
19/02:00pm 7.9 1.5 0.9 61 2.9 SW 24 48 13 26 1006.8 1007.0 1.2
19/01:37pm 8.3 0.8 1.5 62 2.8 SW 30 50 16 27 1006.7 1006.9 1.2
19/01:30pm 7.7 -0.4 0.9 62 2.8 SW 33 48 18 26 1006.6 1006.8 1.2
19/01:00pm 7.6 0.6 1.9 67 2.4 SSW 28 48 15 26 1006.6 1006.8 1.2
19/12:35pm 6.9 0.0 2.8 75 1.7 SW 28 52 15 28 1006.6 1006.8 1.2
19/12:30pm 6.9 2.3 3.9 81 1.3 SW 17 43 9 23 1006.6 1006.8 1.2
19/12:00pm 6.1 1.9 3.9 86 1.0 WSW 15 39 8 21 1006.5 1006.7 1.0
19/11:30am 6.7 4.1 4.4 85 1.0 SW 7 20 4 11 1006.4 1006.6 0.2
19/11:00am 6.5 2.4 4.2 85 1.0 WSW 15 33 8 18 1006.0 1006.2 0.2
19/10:30am 7.6 3.4 4.0 78 1.6 SW 15 43 8 23 1005.5 1005.7 0.0
19/10:00am 8.7 5.6 3.5 70 2.3 W 9 24 5 13 1005.4 1005.6 0.0
19/09:30am 7.7 5.0 2.8 71 2.1 N 6 19 3 10 1005.4 1005.6 0.0
19/09:00am 7.8 4.9 2.5 69 2.3 W 7 22 4 12 1005.1 1005.3 1.8
19/08:30am 8.2 5.4 3.1 70 2.2 NW 7 28 4 15 1004.9 1005.1 1.8
19/08:00am 7.9 5.1 3.0 71 2.1 ESE 7 19 4 10 1004.5 1004.7 1.8
19/07:30am 7.1 4.2 2.6 73 1.9 WSW 7 26 4 14 1004.3 1004.5 1.8
19/07:00am 7.0 4.3 2.9 75 1.7 NW 6 13 3 7 1003.9 1004.1 1.8
19/06:30am 6.4 3.4 2.1 74 1.8 W 7 22 4 12 1003.6 1003.8 1.8
19/06:00am 6.0 3.6 1.9 75 1.7 NNW 4 11 2 6 1003.5 1003.7 1.8
19/05:30am 6.3 2.5 1.8 73 1.8 WNW 11 26 6 14 1003.0 1003.2 1.8
19/05:00am 6.5 3.2 2.2 74 1.8 WNW 9 28 5 15 1003.1 1003.3 1.8
19/04:30am 6.5 2.8 2.2 74 1.8 WNW 11 22 6 12 1003.2 1003.4 1.8
19/04:00am 6.5 1.0 2.0 73 1.9 WNW 20 32 11 17 1002.9 1003.1 1.8
19/03:30am 6.8 3.5 2.3 73 1.9 W 9 28 5 15 1002.8 1003.0 1.8
19/03:00am 6.9 2.8 2.2 72 2.0 W 13 32 7 17 1002.9 1003.1 1.8
19/02:30am 7.0 2.5 1.9 70 2.1 NW 15 28 8 15 1003.0 1003.2 1.8
19/02:00am 7.1 3.0 2.0 70 2.1 WNW 13 22 7 12 1003.2 1003.4 1.8
19/01:30am 7.1 0.9 2.2 71 2.0 NW 24 30 13 16 1003.5 1003.7 1.8
19/01:00am 7.5 2.0 1.8 67 2.4 WNW 20 30 11 16 1003.4 1003.6 1.8
19/12:30am 7.7 2.3 2.2 68 2.3 WNW 20 33 11 18 1003.4 1003.6 1.8
19/12:00am 7.4 2.5 1.9 68 2.3 NW 17 28 9 15 1003.1 1003.3 1.8
 
Date/Time
EST
Temp
°C
App
Temp
°C
Dew
Point
°C
Rel
Hum
%
Delta-T
°C
Wind Press
QNH
hPa
Press
MSL
hPa
Rain since
9am
mm
Dir  Spd
km/h
Gust
km/h
Spd
kts
Gust
kts
18/11:30pm 7.6 2.4 2.3 69 2.2 WNW 19 33 10 18 1003.2 1003.4 1.8
18/11:00pm 7.7 3.4 3.2 73 1.9 NW 15 35 8 19 1003.1 1003.3 1.8
18/10:30pm 8.4 3.8 3.8 73 2.0 NW 17 30 9 16 1003.3 1003.5 1.8
18/10:00pm 8.7 3.5 3.3 69 2.4 NW 20 30 11 16 1003.4 1003.6 1.8
18/09:30pm 8.8 3.6 2.6 65 2.7 NW 19 30 10 16 1003.4 1003.6 1.8
18/09:00pm 8.8 3.6 2.6 65 2.7 WNW 19 30 10 16 1003.3 1003.5 1.8
18/08:30pm 9.0 6.2 3.0 66 2.6 NNW 7 24 4 13 1002.8 1003.0 1.8
18/08:00pm 9.2 6.0 3.0 65 2.7 W 9 26 5 14 1002.6 1002.8 1.8
18/07:30pm 9.4 5.8 3.2 65 2.7 W 11 28 6 15 1002.3 1002.5 1.8
18/07:00pm 9.4 5.5 3.2 65 2.7 WNW 13 37 7 20 1001.8 1001.9 1.8
18/06:30pm 9.9 5.9 5.1 72 2.2 WNW 15 28 8 15 1001.4 1001.5 1.8
18/06:00pm 10.2 5.6 5.6 73 2.2 WNW 19 32 10 17 1001.2 1001.4 1.8
18/05:30pm 10.1 5.2 5.3 72 2.2 WNW 20 33 11 18 1000.9 1001.1 1.8
18/05:00pm 10.1 4.5 5.3 72 2.2 WNW 24 35 13 19 1000.7 1000.9 1.8
18/04:30pm 9.4 4.0 6.5 82 1.4 WNW 24 35 13 19 1000.2 1000.4 1.8

Latest Capital City Observations: Canberra | Sydney | Melbourne | Brisbane | Adelaide | Perth | Hobart | Darwin

Other Formats:

Comma delimited format used in spreadsheet applications
http://www.bom.gov.au/fwo/IDT60901/IDT60901.95986.axf

JavaScript Object Notation format (JSON) in row-major order
http://www.bom.gov.au/fwo/IDT60901/IDT60901.95986.json